Nahunta, Georgia
Current Conditions -  °F | °C
As of 10:35 AM on Saturday 27 Dec 2014 (Local Time) from KJES Reporting Station
Clear Clear  
Wind Chill: 61°   Ceiling: Unl
Heat Index: 61°   Visibility: 10mi
Dew Point: 54°   Wind: 3mph
Humidity: 77%   Direction: 80°E
Pressure: 30.34"   Gusts: NA
Location:  31.2°N, 81.98°W
Report Text: KJES 271535Z AUTO 08003KT 10SM CLR 16/12 A3034 RMK AO2
Loading
Personal Weather Stations






























Interactive Weather Map New forecast layout! Learn more

10-Day Weather Forecast

Advertisements
Track Severe Weather on mobile